createdAt,value
2022-11-07T00:01:20.754Z,2.70
2022-11-07T00:03:47.206Z,2.97
2022-11-07T00:06:13.671Z,4.63
2022-11-07T00:08:40.069Z,2.72
2022-11-07T00:11:07.145Z,3.50
2022-11-07T00:13:34.011Z,3.47
2022-11-07T00:16:06.116Z,4.50
2022-11-07T00:18:34.519Z,5.85
2022-11-07T00:21:10.136Z,3.33
2022-11-07T00:23:39.137Z,4.13
2022-11-07T00:26:11.473Z,2.55
2022-11-07T00:28:40.198Z,2.63
2022-11-07T00:31:08.537Z,1.48
2022-11-07T00:33:35.331Z,3.15
2022-11-07T00:36:01.822Z,3.90
2022-11-07T00:38:28.236Z,2.58
2022-11-07T00:40:59.685Z,3.17
2022-11-07T00:43:27.115Z,2.13
2022-11-07T00:45:53.523Z,4.82
2022-11-07T00:48:22.006Z,2.00
2022-11-07T00:50:48.496Z,1.27
2022-11-07T00:53:15.229Z,2.35
2022-11-07T00:55:42.100Z,2.03
2022-11-07T01:00:40.698Z,3.67
2022-11-07T01:06:01.856Z,2.20
2022-11-07T01:08:29.525Z,3.72
2022-11-07T01:10:56.688Z,1.70
2022-11-07T01:13:24.376Z,4.28
2022-11-07T01:15:51.026Z,3.47
2022-11-07T01:20:44.110Z,1.92
2022-11-07T01:23:10.680Z,2.88
2022-11-07T01:28:05.418Z,3.03
2022-11-07T01:30:31.936Z,3.15
2022-11-07T01:32:58.953Z,2.22
2022-11-07T01:35:25.392Z,5.05
2022-11-07T01:37:51.771Z,3.95
2022-11-07T01:40:18.252Z,2.97
2022-11-07T01:45:19.957Z,2.85
2022-11-07T01:47:47.834Z,3.60
2022-11-07T01:50:14.512Z,3.33
2022-11-07T01:52:44.845Z,3.78
2022-11-07T01:55:17.625Z,2.83
2022-11-07T01:57:53.148Z,4.38
2022-11-07T02:00:22.203Z,3.33
2022-11-07T02:02:55.623Z,5.93
2022-11-07T02:05:29.549Z,2.40
2022-11-07T02:07:56.660Z,3.20
2022-11-07T02:10:23.633Z,2.95
2022-11-07T02:12:51.382Z,2.65
2022-11-07T02:15:17.878Z,4.53
2022-11-07T02:17:44.295Z,1.92
2022-11-07T02:20:11.503Z,2.25
2022-11-07T02:22:49.056Z,3.25
2022-11-07T02:25:17.525Z,4.57
2022-11-07T02:27:45.362Z,3.08
2022-11-07T02:30:18.162Z,4.15
2022-11-07T02:32:44.972Z,4.85
2022-11-07T02:35:30.037Z,3.78
2022-11-07T02:37:56.641Z,5.45
2022-11-07T02:42:50.056Z,3.97
2022-11-07T02:45:24.183Z,6.95
2022-11-07T02:47:50.634Z,4.20
2022-11-07T02:50:17.245Z,2.50
2022-11-07T02:52:43.889Z,7.65
2022-11-07T02:57:37.652Z,5.93
2022-11-07T03:00:05.638Z,5.70
2022-11-07T03:02:32.216Z,4.47
2022-11-07T03:04:58.923Z,5.82
2022-11-07T03:09:51.924Z,8.68
2022-11-07T03:12:18.378Z,2.75
2022-11-07T03:17:11.178Z,4.03
2022-11-07T03:19:37.684Z,3.70
2022-11-07T03:24:32.366Z,5.38
2022-11-07T03:26:59.113Z,5.10
2022-11-07T03:29:25.534Z,4.38
2022-11-07T03:31:51.942Z,3.42
2022-11-07T03:34:18.307Z,5.22
2022-11-07T03:36:44.714Z,6.35
2022-11-07T03:39:11.093Z,3.47
2022-11-07T03:41:37.553Z,3.22
2022-11-07T03:46:30.370Z,5.13
2022-11-07T03:48:56.829Z,5.57
2022-11-07T03:51:23.283Z,3.28
2022-11-07T03:53:49.699Z,4.20
2022-11-07T03:56:16.133Z,5.53
2022-11-07T03:58:42.502Z,6.78
2022-11-07T04:01:10.464Z,3.58
2022-11-07T04:03:37.143Z,3.17
2022-11-07T04:06:03.582Z,4.63
2022-11-07T04:08:29.989Z,3.33
2022-11-07T04:13:41.094Z,4.30
2022-11-07T04:16:29.461Z,4.80
2022-11-07T04:18:56.808Z,6.97
2022-11-07T04:21:23.653Z,5.60
2022-11-07T04:23:50.046Z,2.83
2022-11-07T04:26:35.135Z,4.18
2022-11-07T04:29:01.556Z,4.82
2022-11-07T04:31:27.922Z,4.95
2022-11-07T04:33:54.325Z,5.30
2022-11-07T04:36:20.740Z,8.65
2022-11-07T04:38:47.197Z,4.85
2022-11-07T04:41:20.561Z,5.30
2022-11-07T04:43:47.173Z,6.00
2022-11-07T04:48:40.075Z,6.55
2022-11-07T04:51:06.437Z,1.90
2022-11-07T04:53:32.809Z,4.57
2022-11-07T04:55:59.188Z,4.85
2022-11-07T04:58:28.266Z,6.88
2022-11-07T05:00:54.835Z,4.88
2022-11-07T05:05:48.578Z,3.20
2022-11-07T05:08:15.119Z,8.90
2022-11-07T05:13:08.478Z,3.93
2022-11-07T05:15:34.901Z,5.75
2022-11-07T05:18:01.369Z,6.03
2022-11-07T05:20:31.256Z,2.88
2022-11-07T05:23:15.401Z,3.00
2022-11-07T05:25:47.396Z,4.13
2022-11-07T05:28:22.082Z,6.18
2022-11-07T05:30:52.308Z,7.05
2022-11-07T05:33:19.282Z,7.50
2022-11-07T05:35:46.794Z,6.00
2022-11-07T05:38:13.853Z,6.68
2022-11-07T05:40:41.059Z,3.85
2022-11-07T05:43:10.019Z,4.90
2022-11-07T05:45:37.692Z,7.70
2022-11-07T05:48:07.156Z,7.03
2022-11-07T05:50:34.100Z,5.75
2022-11-07T05:53:00.824Z,4.53
2022-11-07T05:55:27.522Z,4.47
2022-11-07T06:00:20.702Z,4.03
2022-11-07T06:05:24.038Z,3.50
2022-11-07T06:07:51.112Z,5.07
2022-11-07T06:10:17.703Z,4.18
2022-11-07T06:15:11.061Z,7.22
2022-11-07T06:17:37.835Z,6.50
2022-11-07T06:20:04.931Z,4.38
2022-11-07T06:22:31.576Z,4.68
2022-11-07T06:27:24.517Z,7.47
2022-11-07T06:32:17.565Z,6.90
2022-11-07T06:37:10.351Z,5.43
2022-11-07T06:39:37.011Z,5.97
2022-11-07T06:42:03.513Z,6.53
2022-11-07T06:44:29.913Z,6.40
2022-11-07T06:46:56.393Z,3.30
2022-11-07T06:49:22.789Z,6.38
2022-11-07T06:51:49.199Z,7.07
2022-11-07T06:54:15.658Z,4.07
2022-11-07T06:56:42.019Z,4.32
2022-11-07T06:59:08.420Z,10.07
2022-11-07T07:01:34.932Z,6.57
2022-11-07T07:06:27.784Z,6.60
2022-11-07T07:08:54.696Z,3.00
2022-11-07T07:11:21.190Z,2.92
2022-11-07T07:13:47.589Z,4.53
2022-11-07T07:16:14.025Z,5.68
2022-11-07T07:18:40.390Z,3.97
2022-11-07T07:21:09.102Z,4.10
2022-11-07T07:23:36.099Z,6.82
2022-11-07T07:26:03.167Z,6.40
2022-11-07T07:28:30.113Z,4.68
2022-11-07T07:31:14.905Z,7.50
2022-11-07T07:33:46.375Z,4.43
2022-11-07T07:36:17.836Z,5.25
2022-11-07T07:38:47.712Z,5.28
2022-11-07T07:41:14.104Z,2.42
2022-11-07T07:43:40.722Z,6.18
2022-11-07T07:46:08.803Z,4.97
2022-11-07T07:48:35.437Z,7.78
2022-11-07T07:53:28.512Z,4.18
2022-11-07T07:58:26.529Z,3.45
2022-11-07T08:00:57.886Z,7.50
2022-11-07T08:03:29.376Z,4.63
2022-11-07T08:06:02.174Z,4.30
2022-11-07T08:08:39.376Z,4.00
2022-11-07T08:11:08.864Z,4.85
2022-11-07T08:13:35.997Z,5.55
2022-11-07T08:16:04.990Z,3.10
2022-11-07T08:18:31.430Z,4.22
2022-11-07T08:20:57.930Z,5.93
2022-11-07T08:23:24.787Z,5.78
2022-11-07T08:25:56.554Z,6.65
2022-11-07T08:28:30.057Z,6.50
2022-11-07T08:30:58.025Z,4.97
2022-11-07T08:33:24.647Z,5.75
2022-11-07T08:35:51.111Z,4.28
2022-11-07T08:38:17.571Z,4.78
2022-11-07T08:43:10.345Z,5.18
2022-11-07T08:45:36.831Z,7.07
2022-11-07T08:50:29.778Z,7.22
2022-11-07T08:53:01.321Z,5.95
2022-11-07T08:55:29.303Z,5.20
2022-11-07T08:58:00.222Z,4.22
2022-11-07T09:00:27.105Z,4.38
2022-11-07T09:03:31.217Z,3.80
2022-11-07T09:05:40.405Z,4.45
2022-11-07T09:08:06.867Z,5.15
2022-11-07T09:12:59.680Z,7.38
2022-11-07T09:15:26.075Z,10.55
2022-11-07T09:17:52.498Z,3.55
2022-11-07T09:22:46.208Z,6.38
2022-11-07T09:27:39.136Z,2.88
2022-11-07T09:30:05.972Z,4.75
2022-11-07T09:32:44.613Z,5.55
2022-11-07T09:35:12.083Z,5.30
2022-11-07T09:40:40.487Z,4.70
2022-11-07T09:43:18.863Z,7.60
2022-11-07T09:45:54.259Z,6.20
2022-11-07T09:48:24.114Z,5.53
2022-11-07T09:50:51.363Z,3.95
2022-11-07T09:53:32.907Z,4.80
2022-11-07T09:56:01.703Z,4.38
2022-11-07T09:58:42.207Z,5.38
2022-11-07T10:01:15.264Z,7.28
2022-11-07T10:03:52.925Z,5.53
2022-11-07T10:06:32.667Z,5.13
2022-11-07T10:09:18.235Z,8.30
2022-11-07T10:12:10.068Z,5.10
2022-11-07T10:14:45.167Z,3.97
2022-11-07T10:17:31.737Z,3.13
2022-11-07T10:20:08.288Z,2.05
2022-11-07T10:22:58.752Z,6.90
2022-11-07T10:25:35.024Z,1.98
2022-11-07T10:28:07.179Z,2.77
2022-11-07T10:30:34.564Z,3.45
2022-11-07T10:33:28.546Z,8.65
2022-11-07T10:36:02.044Z,2.33
2022-11-07T10:38:30.912Z,7.78
2022-11-07T10:40:59.104Z,4.78
2022-11-07T10:43:29.138Z,5.57
2022-11-07T10:45:55.978Z,6.07
2022-11-07T10:48:22.459Z,7.45
2022-11-07T10:53:24.970Z,4.00
2022-11-07T10:55:53.578Z,7.05
2022-11-07T10:58:30.306Z,5.50
2022-11-07T11:01:09.434Z,4.80
2022-11-07T11:03:44.677Z,4.72
2022-11-07T11:06:21.798Z,2.95
2022-11-07T11:08:50.646Z,6.78
2022-11-07T11:11:34.349Z,4.57
2022-11-07T11:14:09.488Z,4.63
2022-11-07T11:16:38.495Z,4.95
2022-11-07T11:19:07.466Z,5.30
2022-11-07T11:21:46.737Z,8.02
2022-11-07T11:24:23.489Z,5.10
2022-11-07T11:26:51.987Z,6.55
2022-11-07T11:29:47.182Z,7.18
2022-11-07T11:32:25.578Z,3.70
2022-11-07T11:35:05.650Z,5.97
2022-11-07T11:37:36.116Z,4.90
2022-11-07T11:40:03.039Z,3.28
2022-11-07T11:42:53.428Z,3.85
2022-11-07T11:45:41.831Z,7.43
2022-11-07T11:48:25.413Z,4.00
2022-11-07T11:50:57.195Z,6.55
2022-11-07T11:53:23.692Z,8.77
2022-11-07T11:59:04.104Z,8.10
2022-11-07T12:02:19.831Z,9.38
2022-11-07T12:05:01.467Z,3.78
2022-11-07T12:07:39.995Z,4.05
2022-11-07T12:10:17.310Z,6.35
2022-11-07T12:13:01.391Z,4.78
2022-11-07T12:15:39.567Z,2.28
2022-11-07T12:18:19.654Z,2.80
2022-11-07T12:21:02.171Z,6.38
2022-11-07T12:23:51.281Z,4.63
2022-11-07T12:26:27.156Z,4.80
2022-11-07T12:29:01.467Z,4.85
2022-11-07T12:31:41.959Z,5.45
2022-11-07T12:34:26.824Z,3.50
2022-11-07T12:37:27.974Z,9.02
2022-11-07T12:39:57.346Z,6.22
2022-11-07T12:42:40.817Z,3.83
2022-11-07T12:45:22.506Z,4.05
2022-11-07T12:48:17.716Z,3.95
2022-11-07T12:51:09.402Z,4.03
2022-11-07T12:53:50.016Z,5.70
2022-11-07T12:56:22.441Z,7.30
2022-11-07T12:58:51.755Z,3.95
2022-11-07T13:01:23.966Z,4.30
2022-11-07T13:04:13.491Z,3.85
2022-11-07T13:06:49.715Z,5.32
2022-11-07T13:09:37.583Z,3.70
2022-11-07T13:12:13.064Z,5.47
2022-11-07T13:14:42.257Z,5.22
2022-11-07T13:17:17.866Z,5.85
2022-11-07T13:19:46.413Z,5.65
2022-11-07T13:22:15.805Z,7.50
2022-11-07T13:25:10.533Z,2.30
2022-11-07T13:27:41.410Z,11.90
2022-11-07T13:30:13.898Z,6.07
2022-11-07T13:32:52.516Z,5.68
2022-11-07T13:35:28.234Z,5.72
2022-11-07T13:38:08.481Z,4.75
2022-11-07T13:41:03.735Z,3.67
2022-11-07T13:43:55.416Z,2.10
2022-11-07T13:46:45.234Z,5.03
2022-11-07T13:49:20.050Z,4.97
2022-11-07T13:51:49.719Z,4.05
2022-11-07T13:54:27.352Z,4.75
2022-11-07T13:57:10.608Z,3.65
2022-11-07T13:59:55.390Z,4.15
2022-11-07T14:02:30.675Z,5.70
2022-11-07T14:05:16.363Z,4.95
2022-11-07T14:07:48.495Z,4.53
2022-11-07T14:10:27.080Z,2.38
2022-11-07T14:13:10.782Z,3.15
2022-11-07T14:15:44.624Z,5.60
2022-11-07T14:18:15.982Z,4.93
2022-11-07T14:20:47.292Z,5.47
2022-11-07T14:23:13.852Z,5.90
2022-11-07T14:28:16.123Z,6.97
2022-11-07T14:30:42.847Z,8.77
2022-11-07T14:35:48.079Z,3.75
2022-11-07T14:38:27.713Z,13.90
2022-11-07T14:40:57.775Z,5.63
2022-11-07T14:43:25.699Z,5.75
2022-11-07T14:46:15.554Z,4.90
2022-11-07T14:48:43.569Z,3.17
2022-11-07T14:51:13.233Z,3.58
2022-11-07T14:53:53.469Z,4.93
2022-11-07T14:56:25.568Z,4.55
2022-11-07T14:58:52.116Z,6.00
2022-11-07T15:04:03.017Z,3.92
2022-11-07T15:06:33.553Z,2.17
2022-11-07T15:09:07.970Z,4.00
2022-11-07T15:11:40.056Z,5.60
2022-11-07T15:14:29.855Z,22.58
2022-11-07T15:16:58.609Z,16.65
2022-11-07T15:19:25.059Z,4.50
2022-11-07T15:24:45.459Z,2.50
2022-11-07T15:27:41.498Z,3.35
2022-11-07T15:30:29.119Z,5.10
2022-11-07T15:35:42.903Z,2.60
2022-11-07T15:38:16.544Z,3.92
2022-11-07T15:40:43.510Z,2.28
2022-11-07T15:43:09.974Z,4.35
2022-11-07T15:48:06.700Z,4.82
2022-11-07T15:50:34.623Z,3.63
2022-11-07T15:53:01.025Z,5.55
2022-11-07T15:55:27.600Z,8.07
2022-11-07T16:00:23.510Z,4.35
2022-11-07T16:02:50.273Z,5.90
2022-11-07T16:05:17.607Z,7.22
2022-11-07T16:07:45.677Z,3.88
2022-11-07T16:10:30.203Z,4.55
2022-11-07T16:12:59.719Z,7.00
2022-11-07T16:15:28.747Z,3.03
2022-11-07T16:17:55.217Z,3.60
2022-11-07T16:22:50.134Z,5.00
2022-11-07T16:25:24.104Z,8.27
2022-11-07T16:27:56.328Z,6.95
2022-11-07T16:30:22.980Z,7.28
2022-11-07T16:32:49.410Z,8.95
2022-11-07T16:35:16.453Z,7.82
2022-11-07T16:37:42.871Z,6.45
2022-11-07T16:40:13.870Z,5.05
2022-11-07T16:42:41.741Z,8.18
2022-11-07T16:45:08.627Z,8.90
2022-11-07T16:47:37.845Z,6.00
2022-11-07T16:50:05.377Z,5.53
2022-11-07T16:52:31.876Z,7.47
2022-11-07T16:54:59.126Z,5.03
2022-11-07T16:57:26.116Z,7.38
2022-11-07T16:59:52.601Z,5.00
2022-11-07T17:04:51.525Z,7.18
2022-11-07T17:07:19.497Z,7.28
2022-11-07T17:09:46.135Z,4.15
2022-11-07T17:14:41.689Z,7.60
2022-11-07T17:17:08.700Z,4.68
2022-11-07T17:19:35.286Z,4.85
2022-11-07T17:24:30.691Z,8.00
2022-11-07T17:26:58.471Z,6.93
2022-11-07T17:29:25.670Z,5.70
2022-11-07T17:31:53.371Z,6.60
2022-11-07T17:34:20.700Z,5.03
2022-11-07T17:36:50.870Z,9.23
2022-11-07T17:39:19.811Z,12.55
2022-11-07T17:41:48.734Z,14.70
2022-11-07T17:44:19.216Z,16.88
2022-11-07T17:46:48.280Z,15.48
2022-11-07T17:49:17.384Z,16.38
2022-11-07T17:51:44.615Z,20.17
2022-11-07T17:54:12.974Z,21.17
2022-11-07T17:56:40.870Z,13.32
2022-11-07T17:59:12.244Z,17.85
2022-11-07T18:01:39.325Z,17.58
2022-11-07T18:04:07.398Z,17.98
2022-11-07T18:06:39.876Z,15.27
2022-11-07T18:09:11.268Z,15.93
2022-11-07T18:11:37.711Z,14.68
2022-11-07T18:14:04.322Z,19.63
2022-11-07T18:18:59.828Z,21.80
2022-11-07T18:21:26.543Z,20.73
2022-11-07T18:23:53.649Z,20.77
2022-11-07T18:26:30.130Z,20.55
2022-11-07T18:29:01.712Z,22.60
2022-11-07T18:31:28.222Z,19.73
2022-11-07T18:34:00.035Z,16.45
2022-11-07T18:36:27.414Z,11.65
2022-11-07T18:38:54.059Z,12.23
2022-11-07T18:41:22.608Z,11.70
2022-11-07T18:43:49.451Z,14.10
2022-11-07T18:46:19.177Z,10.77
2022-11-07T18:48:46.393Z,15.40
2022-11-07T18:51:23.406Z,12.77
2022-11-07T18:53:52.063Z,10.25
2022-11-07T18:56:20.107Z,10.38
2022-11-07T18:58:46.993Z,10.48
2022-11-07T19:01:17.402Z,10.75
2022-11-07T19:03:44.835Z,7.50
2022-11-07T19:06:15.173Z,10.57
2022-11-07T19:08:44.146Z,9.80
2022-11-07T19:11:13.510Z,8.15
2022-11-07T19:13:42.326Z,10.68
2022-11-07T19:16:10.609Z,10.77
2022-11-07T19:18:37.570Z,11.25
2022-11-07T19:21:04.678Z,13.32
2022-11-07T19:23:32.178Z,9.10
2022-11-07T19:25:58.825Z,10.00
2022-11-07T19:28:25.482Z,9.80
2022-11-07T19:33:20.263Z,10.73
2022-11-07T19:35:47.313Z,14.32
2022-11-07T19:38:14.424Z,12.38
2022-11-07T19:40:48.265Z,11.43
2022-11-07T19:43:15.239Z,13.55
2022-11-07T19:45:42.624Z,12.30
2022-11-07T19:48:09.261Z,13.05
2022-11-07T19:50:37.592Z,11.35
2022-11-07T19:53:05.145Z,12.02
2022-11-07T19:55:31.638Z,10.60
2022-11-07T19:57:58.636Z,9.98
2022-11-07T20:00:26.333Z,10.18
2022-11-07T20:02:53.634Z,12.25
2022-11-07T20:05:24.701Z,10.82
2022-11-07T20:07:55.352Z,9.20
2022-11-07T20:10:23.474Z,10.75
2022-11-07T20:12:50.047Z,7.68
2022-11-07T20:17:43.029Z,8.57
2022-11-07T20:22:46.219Z,7.32
2022-11-07T20:25:13.596Z,8.52
2022-11-07T20:27:40.334Z,8.88
2022-11-07T20:30:08.092Z,10.40
2022-11-07T20:32:34.588Z,10.68
2022-11-07T20:35:01.036Z,12.20
2022-11-07T20:37:27.424Z,10.65
2022-11-07T20:39:54.055Z,7.25
2022-11-07T20:44:48.784Z,9.63
2022-11-07T20:47:15.219Z,7.43
2022-11-07T20:49:42.122Z,8.63
2022-11-07T20:52:08.945Z,7.15
2022-11-07T20:54:36.569Z,9.75
2022-11-07T20:57:04.107Z,8.55
2022-11-07T20:59:31.812Z,9.35
2022-11-07T21:02:03.272Z,6.85
2022-11-07T21:04:49.602Z,5.38
2022-11-07T21:07:19.763Z,5.63
2022-11-07T21:09:46.470Z,7.07
2022-11-07T21:14:42.232Z,7.20
2022-11-07T21:17:09.995Z,5.18
2022-11-07T21:19:36.726Z,7.25
2022-11-07T21:22:04.030Z,7.85
2022-11-07T21:24:30.991Z,8.02
2022-11-07T21:26:57.910Z,7.57
2022-11-07T21:29:29.219Z,6.50
2022-11-07T21:31:56.452Z,4.75
2022-11-07T21:34:22.840Z,5.28
2022-11-07T21:36:49.311Z,7.28
2022-11-07T21:39:16.264Z,6.03
2022-11-07T21:41:42.798Z,7.03
2022-11-07T21:44:11.229Z,7.80
2022-11-07T21:46:37.849Z,6.80
2022-11-07T21:51:34.529Z,6.47
2022-11-07T21:54:02.364Z,6.05
2022-11-07T21:56:34.983Z,6.10
2022-11-07T21:59:03.904Z,6.95
2022-11-07T22:01:35.198Z,8.70
2022-11-07T22:04:08.224Z,5.90
2022-11-07T22:06:44.620Z,6.63
2022-11-07T22:09:15.143Z,9.02
2022-11-07T22:11:41.736Z,6.72
2022-11-07T22:16:36.134Z,7.07
2022-11-07T22:19:02.664Z,6.75
2022-11-07T22:21:32.056Z,7.80
2022-11-07T22:23:58.953Z,7.57
2022-11-07T22:26:28.899Z,7.63
2022-11-07T22:28:55.983Z,6.95
2022-11-07T22:31:28.407Z,9.15
2022-11-07T22:33:55.948Z,6.47
2022-11-07T22:36:23.648Z,5.50
2022-11-07T22:38:52.493Z,5.78
2022-11-07T22:41:21.632Z,5.80
2022-11-07T22:43:49.556Z,6.82
2022-11-07T22:46:23.915Z,5.68
2022-11-07T22:48:51.987Z,5.70
2022-11-07T22:51:22.047Z,5.30
2022-11-07T22:53:54.630Z,5.13
2022-11-07T22:56:21.051Z,5.75
2022-11-07T22:58:47.536Z,5.82
2022-11-07T23:03:46.726Z,3.92
2022-11-07T23:06:13.212Z,4.43
2022-11-07T23:08:42.839Z,4.57
2022-11-07T23:14:06.889Z,6.68
2022-11-07T23:16:38.853Z,5.57
2022-11-07T23:19:08.000Z,4.75
2022-11-07T23:21:35.639Z,5.68
2022-11-07T23:24:03.128Z,3.63
2022-11-07T23:26:33.795Z,5.47
2022-11-07T23:29:10.036Z,3.35
2022-11-07T23:31:38.938Z,7.50
2022-11-07T23:34:05.601Z,6.80
2022-11-07T23:39:04.570Z,4.63
2022-11-07T23:41:31.327Z,4.68
2022-11-07T23:43:58.742Z,7.72
2022-11-07T23:46:43.988Z,3.13
2022-11-07T23:49:29.126Z,3.92
2022-11-07T23:51:55.897Z,5.93
2022-11-07T23:54:40.951Z,7.15
2022-11-07T23:57:07.410Z,6.10
2022-11-07T23:59:54.433Z,4.63
